Time;durP1;ratioP1;P1;durP2;ratioP2;P2;SDS_P1;SDS_P2;PMS_P1;PMS_P2;Temp;Humidity;BMP_temperature;BMP_pressure;BME280_temperature;BME280_humidity;BME280_pressure;Samples;Min_cycle;Max_cycle;Signal;HPM_P1;HPM_P2
2023/04/01 00:01:07;;;;;;;7.03;2.17;;;;;;;9.11;100.00;98959.13;4955079;29;20031;-72
2023/04/01 00:03:33;;;;;;;6.68;1.80;;;;;;;9.08;100.00;98959.63;4957272;29;20027;-72
2023/04/01 00:06:00;;;;;;;7.72;2.00;;;;;;;9.05;100.00;98961.78;4957009;29;20031;-69
2023/04/01 00:08:27;;;;;;;7.05;2.30;;;;;;;9.04;100.00;98965.56;4957969;28;20455;-70
2023/04/01 00:10:53;;;;;;;6.22;1.77;;;;;;;9.07;100.00;98969.59;4957095;29;20042;-71
2023/04/01 00:13:19;;;;;;;7.68;2.28;;;;;;;9.06;100.00;98965.31;4957439;29;20371;-72
2023/04/01 00:15:45;;;;;;;9.10;2.10;;;;;;;9.09;100.00;98953.16;4956907;28;20031;-71
2023/04/01 00:18:11;;;;;;;7.07;2.25;;;;;;;9.05;100.00;98966.38;4957321;29;20030;-72
2023/04/01 00:20:37;;;;;;;5.78;2.28;;;;;;;9.04;100.00;98960.16;4957230;29;20062;-74
2023/04/01 00:23:02;;;;;;;7.13;2.20;;;;;;;9.05;100.00;98961.78;4956488;28;20110;-71
2023/04/01 00:25:28;;;;;;;7.25;2.25;;;;;;;9.04;100.00;98965.56;4956745;29;20031;-72
2023/04/01 00:27:53;;;;;;;6.57;2.00;;;;;;;9.08;100.00;98965.84;4956910;29;20023;-72
2023/04/01 00:30:19;;;;;;;5.65;2.10;;;;;;;9.03;100.00;98963.94;4968372;28;20030;-68
2023/04/01 00:32:44;;;;;;;5.70;1.90;;;;;;;9.04;100.00;98970.13;4974748;28;20034;-69
2023/04/01 00:35:10;;;;;;;3.22;2.03;;;;;;;9.05;100.00;98977.16;4976080;28;20046;-70
2023/04/01 00:37:36;;;;;;;5.72;2.15;;;;;;;9.02;100.00;98972.28;4970910;28;20136;-73
2023/04/01 00:40:05;;;;;;;6.90;2.20;;;;;;;9.02;100.00;98977.69;4955999;29;20054;-72
2023/04/01 00:42:30;;;;;;;6.65;2.33;;;;;;;9.02;100.00;98980.38;4956805;29;20023;-69
2023/04/01 00:44:55;;;;;;;4.55;1.88;;;;;;;9.07;100.00;98974.19;4956095;28;20034;-75
2023/04/01 00:47:25;;;;;;;4.35;2.33;;;;;;;8.99;100.00;98973.59;4956751;29;20148;-70
2023/04/01 00:49:53;;;;;;;5.32;2.15;;;;;;;8.99;100.00;98979.00;4956238;29;20027;-71
2023/04/01 00:52:23;;;;;;;7.07;2.65;;;;;;;9.00;100.00;98988.72;4956098;28;20106;-69
2023/04/01 00:54:53;;;;;;;3.90;1.98;;;;;;;8.98;100.00;98987.34;4956487;29;20027;-71
2023/04/01 00:57:23;;;;;;;6.35;2.67;;;;;;;8.99;100.00;98989.78;4956245;29;20038;-70
2023/04/01 00:59:52;;;;;;;3.97;2.13;;;;;;;8.98;100.00;99000.84;4956325;29;20062;-72
2023/04/01 01:02:19;;;;;;;5.25;2.20;;;;;;;8.99;100.00;98986.28;4954119;29;20171;-71
2023/04/01 01:04:45;;;;;;;4.22;2.22;;;;;;;8.99;100.00;98997.09;4939032;29;20028;-72
2023/04/01 01:07:40;;;;;;;3.03;2.15;;;;;;;9.02;100.00;98999.25;4956239;29;20069;-69
2023/04/01 01:10:13;;;;;;;5.50;2.60;;;;;;;8.98;100.00;98993.59;4956255;29;20034;-72
2023/04/01 01:12:47;;;;;;;4.97;2.50;;;;;;;8.99;100.00;99003.28;4938627;29;20038;-73
2023/04/01 01:15:20;;;;;;;4.93;2.80;;;;;;;8.99;100.00;98999.78;4956548;29;20031;-71
2023/04/01 01:17:58;;;;;;;3.25;2.65;;;;;;;8.98;100.00;98998.16;4956369;28;20030;-72
2023/04/01 01:20:32;;;;;;;2.83;2.35;;;;;;;9.01;100.00;99003.84;4955926;29;20139;-72
2023/04/01 01:23:43;;;;;;;3.78;2.65;;;;;;;9.00;100.00;99010.31;4955891;29;20462;-69
2023/04/01 01:26:30;;;;;;;3.67;2.58;;;;;;;8.98;100.00;99000.84;4936739;28;20074;-68
2023/04/01 01:29:33;;;;;;;3.33;3.00;;;;;;;8.99;100.00;99003.28;4955380;28;20436;-73
2023/04/01 01:32:38;;;;;;;5.30;3.15;;;;;;;8.99;100.00;98999.78;4938407;29;20039;-73
2023/04/01 01:35:30;;;;;;;4.05;3.30;;;;;;;9.07;100.00;99017.38;4955394;29;20061;-73
2023/04/01 01:38:01;;;;;;;4.78;3.60;;;;;;;8.98;100.00;99009.78;4956435;28;20027;-71
2023/04/01 01:40:28;;;;;;;5.00;4.28;;;;;;;8.99;100.00;99005.97;4966439;28;20031;-71
2023/04/01 01:42:59;;;;;;;5.22;4.82;;;;;;;9.00;100.00;99014.91;4974766;28;20030;-68
2023/04/01 01:45:27;;;;;;;6.90;5.45;;;;;;;8.99;100.00;99010.56;4973408;28;20031;-70
2023/04/01 01:47:55;;;;;;;6.47;5.75;;;;;;;9.03;100.00;99023.28;4974488;28;20057;-70
2023/04/01 01:50:21;;;;;;;6.57;5.97;;;;;;;8.98;100.00;99012.47;4974855;28;20053;-70
2023/04/01 01:52:46;;;;;;;6.55;5.90;;;;;;;8.98;100.00;99020.56;4974856;28;20389;-73
2023/04/01 01:55:34;;;;;;;6.45;5.85;;;;;;;9.00;100.00;99018.41;4964269;28;20031;-71
2023/04/01 01:58:13;;;;;;;6.55;5.70;;;;;;;8.97;100.00;99029.72;4957123;28;20027;-72
2023/04/01 02:00:41;;;;;;;6.80;6.05;;;;;;;8.94;100.00;99030.25;4972471;28;20491;-71
2023/04/01 02:03:07;;;;;;;8.00;5.75;;;;;;;8.92;100.00;99037.75;4974534;28;20029;-72
2023/04/01 02:05:32;;;;;;;6.78;6.10;;;;;;;8.93;100.00;99039.41;4972774;28;20023;-71
2023/04/01 02:08:12;;;;;;;7.63;6.10;;;;;;;8.97;100.00;99043.22;4973060;28;20034;-69
2023/04/01 02:10:45;;;;;;;8.48;5.88;;;;;;;8.94;100.00;99034.81;4972070;28;20031;-73
2023/04/01 02:13:24;;;;;;;8.40;6.25;;;;;;;8.87;100.00;99045.81;4974321;28;20059;-73
2023/04/01 02:15:55;;;;;;;7.95;7.15;;;;;;;8.87;100.00;99040.44;4974204;28;20113;-72
2023/04/01 02:18:21;;;;;;;8.80;7.23;;;;;;;8.88;100.00;99047.47;4972553;28;20047;-71
2023/04/01 02:20:46;;;;;;;9.20;7.90;;;;;;;8.84;100.00;99043.66;4959870;28;20162;-71
2023/04/01 02:23:13;;;;;;;14.32;8.57;;;;;;;8.83;100.00;99040.16;4937288;29;20390;-69
2023/04/01 02:25:41;;;;;;;12.55;9.05;;;;;;;8.83;100.00;99044.69;4954959;29;20608;-74
2023/04/01 02:28:09;;;;;;;10.32;9.10;;;;;;;8.82;100.00;99045.78;4937496;29;20023;-69
2023/04/01 02:30:36;;;;;;;12.82;8.98;;;;;;;8.80;100.00;99050.63;4954604;28;20034;-71
2023/04/01 02:33:03;;;;;;;11.65;9.85;;;;;;;8.80;100.00;99045.22;4966437;28;20038;-70
2023/04/01 02:35:29;;;;;;;13.77;9.60;;;;;;;8.79;100.00;99054.41;4973955;28;20037;-69
2023/04/01 02:37:55;;;;;;;13.60;9.77;;;;;;;8.78;100.00;99047.38;4956597;28;20018;-71
2023/04/01 02:40:21;;;;;;;13.98;10.38;;;;;;;8.74;100.00;99051.66;4974074;28;20153;-68
2023/04/01 02:42:46;;;;;;;14.30;10.65;;;;;;;8.76;100.00;99060.31;4973957;28;20073;-72
2023/04/01 02:45:13;;;;;;;14.05;11.07;;;;;;;8.74;100.00;99047.09;4962404;28;20031;-71
2023/04/01 02:47:38;;;;;;;13.23;10.65;;;;;;;8.75;100.00;99053.28;4954343;29;20418;-71
2023/04/01 02:50:05;;;;;;;16.10;11.82;;;;;;;8.74;100.00;99057.03;4954387;29;20027;-73
2023/04/01 02:52:30;;;;;;;15.00;12.05;;;;;;;8.73;100.00;99060.81;4954308;29;20467;-73
2023/04/01 02:54:57;;;;;;;17.48;12.20;;;;;;;8.69;100.00;99060.50;4953892;28;20109;-71
2023/04/01 02:57:22;;;;;;;12.98;10.32;;;;;;;8.73;100.00;99060.81;4954788;29;20035;-74
2023/04/01 02:59:48;;;;;;;18.77;12.70;;;;;;;8.68;100.00;99062.41;4960239;28;20038;-72
2023/04/01 03:02:13;;;;;;;15.45;11.80;;;;;;;8.66;100.00;99066.41;4970643;28;20105;-70
2023/04/01 03:04:38;;;;;;;15.68;11.20;;;;;;;8.66;100.00;99067.22;4973506;28;20473;-69
2023/04/01 03:07:04;;;;;;;13.35;11.05;;;;;;;8.65;100.00;99065.59;4973530;28;20085;-72
2023/04/01 03:09:30;;;;;;;14.27;11.15;;;;;;;8.64;100.00;99072.06;4969440;28;20439;-71
2023/04/01 03:11:55;;;;;;;12.02;8.77;;;;;;;8.66;100.00;99075.31;4954391;29;20034;-70
2023/04/01 03:14:20;;;;;;;17.42;11.52;;;;;;;8.69;100.00;99082.88;4954419;29;20106;-73
2023/04/01 03:16:46;;;;;;;13.60;10.27;;;;;;;8.67;100.00;99076.13;4954149;29;20107;-71
2023/04/01 03:19:11;;;;;;;15.27;11.25;;;;;;;8.66;100.00;99077.19;4954142;29;20055;-71
2023/04/01 03:21:36;;;;;;;14.00;10.52;;;;;;;8.65;100.00;99087.19;4950894;28;20117;-72
2023/04/01 03:24:02;;;;;;;12.43;10.23;;;;;;;8.65;100.00;99089.88;4973320;28;20027;-68
2023/04/01 03:26:27;;;;;;;12.68;10.45;;;;;;;8.65;100.00;99086.34;4973622;28;20038;-70
2023/04/01 03:28:53;;;;;;;14.32;10.23;;;;;;;8.63;100.00;99083.91;4973556;28;20365;-71
2023/04/01 03:31:19;;;;;;;15.88;10.65;;;;;;;8.61;100.00;99086.06;4973308;28;20027;-70
2023/04/01 03:33:44;;;;;;;13.82;10.85;;;;;;;8.60;100.00;99095.22;4973545;28;20046;-71
2023/04/01 03:36:12;;;;;;;12.25;9.68;;;;;;;8.59;100.00;99090.91;4967819;28;20105;-70
2023/04/01 03:38:37;;;;;;;14.05;10.13;;;;;;;8.61;100.00;99091.44;4936546;29;20527;-68
2023/04/01 03:41:03;;;;;;;13.65;10.05;;;;;;;8.62;100.00;99093.09;4953682;29;20031;-69
2023/04/01 03:43:29;;;;;;;13.82;10.43;;;;;;;8.61;100.00;99098.75;4954024;29;20031;-72
2023/04/01 03:45:56;;;;;;;12.95;10.43;;;;;;;8.56;100.00;99094.09;4954163;29;20359;-73
2023/04/01 03:48:21;;;;;;;13.07;10.80;;;;;;;8.58;100.00;99097.34;4953739;29;20019;-70
2023/04/01 03:50:47;;;;;;;12.20;10.07;;;;;;;8.56;100.00;99099.50;4953048;28;20448;-69
2023/04/01 03:53:13;;;;;;;12.52;9.55;;;;;;;8.56;100.00;99093.28;4952730;28;20463;-70
2023/04/01 03:55:39;;;;;;;13.57;9.95;;;;;;;8.58;100.00;99102.75;4936339;29;20050;-75
2023/04/01 03:58:06;;;;;;;10.00;8.80;;;;;;;8.59;100.00;99104.38;4936559;29;20097;-71
2023/04/01 04:00:31;;;;;;;10.45;8.35;;;;;;;8.60;100.00;99103.28;4951466;28;20036;-71
2023/04/01 04:02:57;;;;;;;8.73;7.80;;;;;;;8.58;100.00;99107.34;4953642;29;20031;-70
2023/04/01 04:05:24;;;;;;;8.93;7.30;;;;;;;8.54;100.00;99109.72;4953743;29;20479;-69
2023/04/01 04:07:49;;;;;;;8.05;6.80;;;;;;;8.55;100.00;99113.25;4953979;29;20039;-68
2023/04/01 04:10:15;;;;;;;8.00;7.20;;;;;;;8.58;100.00;99112.72;4954926;28;20053;-74
2023/04/01 04:12:40;;;;;;;9.55;7.28;;;;;;;8.56;100.00;99120.25;4973237;28;20027;-72
2023/04/01 04:15:06;;;;;;;7.97;7.15;;;;;;;8.54;100.00;99123.19;4974621;28;20038;-72
2023/04/01 04:17:32;;;;;;;8.77;7.88;;;;;;;8.55;100.00;99122.13;4976375;28;20063;-69
2023/04/01 04:19:57;;;;;;;7.78;6.78;;;;;;;8.55;100.00;99122.13;4959245;28;20434;-73
2023/04/01 04:22:23;;;;;;;7.75;6.55;;;;;;;8.55;100.00;99130.22;4976028;28;20451;-71
2023/04/01 04:24:48;;;;;;;7.13;6.35;;;;;;;8.54;100.00;99133.97;4965053;28;20035;-72
2023/04/01 04:27:13;;;;;;;8.40;6.65;;;;;;;8.52;100.00;99138.81;4955980;28;20035;-72
2023/04/01 04:29:39;;;;;;;7.95;6.80;;;;;;;8.50;100.00;99136.38;4957106;29;20411;-73
2023/04/01 04:32:05;;;;;;;5.60;5.03;;;;;;;8.54;100.00;99138.56;4939643;29;20118;-70
2023/04/01 04:34:31;;;;;;;6.70;5.97;;;;;;;8.48;100.00;99145.78;4957032;29;20023;-70
2023/04/01 04:36:56;;;;;;;5.85;5.25;;;;;;;8.49;100.00;99136.63;4970461;28;20376;-69
2023/04/01 04:39:21;;;;;;;6.43;5.50;;;;;;;8.45;100.00;99148.97;4975780;28;20023;-74
2023/04/01 04:41:47;;;;;;;6.38;5.05;;;;;;;8.45;100.00;99146.28;4976116;28;20027;-69
2023/04/01 04:44:12;;;;;;;5.40;4.90;;;;;;;8.43;100.00;99143.81;4976219;28;20363;-71
2023/04/01 04:46:39;;;;;;;5.22;4.72;;;;;;;8.41;100.00;99139.72;4960071;28;20031;-70
2023/04/01 04:49:04;;;;;;;4.20;3.80;;;;;;;8.45;100.00;99155.16;4939152;29;20098;-70
2023/04/01 04:51:30;;;;;;;4.53;4.13;;;;;;;8.41;100.00;99153.19;4939581;29;20086;-69
2023/04/01 04:53:55;;;;;;;4.68;4.25;;;;;;;8.38;100.00;99151.84;4939520;29;20030;-71
2023/04/01 04:56:22;;;;;;;4.38;3.97;;;;;;;8.40;100.00;99159.69;4970390;28;20089;-71
2023/04/01 04:58:48;;;;;;;5.07;4.13;;;;;;;8.36;100.00;99163.94;4975823;28;20061;-73
2023/04/01 05:01:15;;;;;;;5.63;4.50;;;;;;;8.34;100.00;99167.69;4961977;28;20534;-69
2023/04/01 05:03:41;;;;;;;5.07;4.13;;;;;;;8.38;100.00;99172.56;4956229;29;20047;-70
2023/04/01 05:06:08;;;;;;;5.75;4.20;;;;;;;8.36;100.00;99180.91;4955810;28;20027;-71
2023/04/01 05:08:34;;;;;;;5.05;4.60;;;;;;;8.35;100.00;99173.91;4955320;28;20038;-69
2023/04/01 05:11:01;;;;;;;5.00;4.45;;;;;;;8.32;100.00;99182.50;4956389;29;20363;-71
2023/04/01 05:13:27;;;;;;;5.57;5.07;;;;;;;8.36;100.00;99177.41;4956185;29;20057;-71
2023/04/01 05:15:52;;;;;;;4.00;3.70;;;;;;;8.30;100.00;99171.13;4956046;29;20030;-72
2023/04/01 05:18:17;;;;;;;4.03;3.70;;;;;;;8.34;100.00;99186.56;4955790;29;20121;-70
2023/04/01 05:20:51;;;;;;;3.90;3.60;;;;;;;8.30;100.00;99187.31;4955771;28;20110;-71
2023/04/01 05:23:16;;;;;;;4.45;3.50;;;;;;;8.31;100.00;99191.66;4955377;28;20031;-73
2023/04/01 05:25:42;;;;;;;4.00;3.60;;;;;;;8.33;100.00;99198.41;4955807;28;20568;-72
2023/04/01 05:28:08;;;;;;;4.90;3.60;;;;;;;8.32;100.00;99191.38;4955846;29;20033;-71
2023/04/01 05:30:33;;;;;;;4.25;3.85;;;;;;;8.32;100.00;99196.78;4955764;29;20363;-70
2023/04/01 05:32:58;;;;;;;3.65;3.35;;;;;;;8.32;100.00;99206.75;4955665;29;20035;-72
2023/04/01 05:35:24;;;;;;;3.90;3.60;;;;;;;8.31;100.00;99203.22;4955225;29;20126;-75
2023/04/01 05:37:49;;;;;;;4.00;3.67;;;;;;;8.36;100.00;99217.84;4937779;29;20078;-71
2023/04/01 05:40:15;;;;;;;4.18;3.70;;;;;;;8.33;100.00;99216.44;4960232;28;20463;-71
2023/04/01 05:42:40;;;;;;;5.25;3.95;;;;;;;8.37;100.00;99227.56;4975115;28;20033;-70
2023/04/01 05:45:06;;;;;;;4.03;3.72;;;;;;;8.34;100.00;99226.97;4974912;28;20057;-71
2023/04/01 05:47:32;;;;;;;5.60;4.38;;;;;;;8.28;100.00;99225.28;4957629;28;20026;-71
2023/04/01 05:49:57;;;;;;;5.00;4.50;;;;;;;8.28;100.00;99233.38;4974896;28;20027;-72
2023/04/01 05:52:23;;;;;;;4.65;4.25;;;;;;;8.27;100.00;99237.16;4961061;28;20110;-72
2023/04/01 05:54:49;;;;;;;5.95;4.50;;;;;;;8.30;100.00;99239.34;4974551;28;20030;-72
2023/04/01 05:57:14;;;;;;;5.55;4.70;;;;;;;8.29;100.00;99242.28;4974620;28;20053;-71
2023/04/01 05:59:40;;;;;;;6.15;5.22;;;;;;;8.29;100.00;99242.28;4957480;28;20026;-71
2023/04/01 06:02:05;;;;;;;6.60;6.00;;;;;;;8.27;100.00;99253.31;4968062;28;20479;-72
2023/04/01 06:04:37;;;;;;;7.97;6.07;;;;;;;8.25;100.00;99250.03;4959989;28;20352;-72
2023/04/01 06:07:10;;;;;;;7.32;5.90;;;;;;;8.28;100.00;99257.63;4971477;28;20043;-72
2023/04/01 06:09:36;;;;;;;6.55;5.85;;;;;;;8.30;100.00;99262.78;4955035;29;20463;-70
2023/04/01 06:12:16;;;;;;;6.63;5.93;;;;;;;8.30;100.00;99271.69;4955253;29;20106;-71
2023/04/01 06:15:14;;;;;;;8.15;6.60;;;;;;;8.32;100.00;99274.13;4955002;29;20106;-72
2023/04/01 06:18:07;;;;;;;7.05;5.95;;;;;;;8.35;100.00;99281.72;4947914;28;20106;-73
2023/04/01 06:20:57;;;;;;;7.20;6.00;;;;;;;8.36;100.00;99282.53;4954866;29;20356;-72
2023/04/01 06:23:43;;;;;;;6.30;5.57;;;;;;;8.37;100.00;99279.59;4936748;29;20034;-72
2023/04/01 06:26:17;;;;;;;6.45;5.85;;;;;;;8.37;100.00;99293.06;4954859;29;20122;-71
2023/04/01 06:29:01;;;;;;;8.43;6.20;;;;;;;8.37;100.00;99293.06;4954940;29;20177;-72
2023/04/01 06:32:01;;;;;;;6.93;6.00;;;;;;;8.41;100.00;99301.44;4954612;29;20035;-74
2023/04/01 06:34:59;;;;;;;8.13;6.35;;;;;;;8.38;100.00;99296.56;4937399;29;20463;-69
2023/04/01 06:37:27;;;;;;;8.02;6.75;;;;;;;8.40;100.00;99297.16;4922007;28;20048;-69
2023/04/01 06:40:00;;;;;;;9.80;7.63;;;;;;;8.39;100.00;99304.41;4954734;28;20106;-72
2023/04/01 06:43:02;;;;;;;9.43;7.82;;;;;;;8.43;100.00;99299.34;4954515;29;20031;-69
2023/04/01 06:45:52;;;;;;;10.90;8.57;;;;;;;8.44;100.00;99312.59;4954469;29;20023;-69
2023/04/01 06:48:20;;;;;;;11.85;8.85;;;;;;;8.49;100.00;99319.94;4954349;29;20050;-71
2023/04/01 06:50:53;;;;;;;12.13;9.45;;;;;;;8.41;100.00;99314.94;4954852;29;20023;-74
2023/04/01 06:53:57;;;;;;;12.45;9.55;;;;;;;8.49;100.00;99320.75;4952852;28;20438;-72
2023/04/01 06:56:27;;;;;;;13.02;9.88;;;;;;;8.50;100.00;99322.38;4953622;29;20039;-72
2023/04/01 06:59:05;;;;;;;13.65;10.10;;;;;;;8.58;100.00;99326.53;4937130;29;20030;-72
2023/04/01 07:01:37;;;;;;;15.02;10.90;;;;;;;8.56;100.00;99331.38;4952059;29;20035;-71
2023/04/01 07:04:11;;;;;;;15.40;12.15;;;;;;;8.57;100.00;99332.19;4954319;29;20375;-72
2023/04/01 07:06:50;;;;;;;14.90;11.60;;;;;;;8.66;100.00;99339.56;4954603;29;20023;-74
2023/04/01 07:09:21;;;;;;;14.52;11.85;;;;;;;8.68;100.00;99347.41;4953520;28;20023;-73
2023/04/01 07:11:47;;;;;;;16.08;12.05;;;;;;;8.67;100.00;99348.50;4937251;29;20030;-79
2023/04/01 07:14:28;;;;;;;17.08;12.50;;;;;;;8.71;100.00;99349.63;4949692;29;20113;-69
2023/04/01 07:16:57;;;;;;;;;;;;;;;8.76;100.00;99348.88;4969733;28;20034;-71
2023/04/01 07:19:52;;;;;;;19.52;13.88;;;;;;;8.76;100.00;99355.09;4973362;28;19912;-72
2023/04/01 07:22:35;;;;;;;16.77;13.73;;;;;;;8.89;100.00;99355.78;4954631;28;20097;-72
2023/04/01 07:25:21;;;;;;;20.13;14.27;;;;;;;8.82;100.00;99364.06;4952905;28;20355;-71
2023/04/01 07:27:50;;;;;;;19.70;14.43;;;;;;;8.86;100.00;99363.31;4971346;28;20031;-69
2023/04/01 07:30:17;;;;;;;20.55;14.57;;;;;;;8.85;100.00;99371.66;4972706;28;20034;-70
2023/04/01 07:32:59;;;;;;;20.33;14.90;;;;;;;8.86;100.00;99384.06;4972079;28;20146;-73
2023/04/01 07:35:54;;;;;;;20.65;15.25;;;;;;;8.85;100.00;99383.25;4955297;28;20114;-72
2023/04/01 07:38:19;;;;;;;23.90;16.05;;;;;;;8.88;100.00;99379.25;4954204;28;20390;-72
2023/04/01 07:41:08;;;;;;;21.52;15.00;;;;;;;8.91;100.00;99386.00;4973155;28;20027;-72
2023/04/01 07:43:50;;;;;;;20.95;15.27;;;;;;;8.92;100.00;99388.47;4957552;28;20111;-72
2023/04/01 07:46:25;;;;;;;20.88;14.15;;;;;;;8.94;100.00;99390.94;4936290;29;20042;-69
2023/04/01 07:49:00;;;;;;;20.95;14.60;;;;;;;8.95;100.00;99398.78;4966368;28;20035;-70
2023/04/01 07:51:29;;;;;;;20.58;13.48;;;;;;;8.94;100.00;99390.94;4976318;28;20023;-69
2023/04/01 07:54:21;;;;;;;21.42;14.48;;;;;;;8.99;100.00;99407.97;4959535;28;20080;-75
2023/04/01 07:56:58;;;;;;;21.55;15.70;;;;;;;8.96;100.00;99413.88;4975867;28;20027;-69
2023/04/01 07:59:30;;;;;;;21.73;15.98;;;;;;;8.97;100.00;99415.53;4959046;28;20030;-71
2023/04/01 08:02:10;;;;;;;21.42;16.17;;;;;;;9.01;100.00;99426.63;4967202;28;20481;-74
2023/04/01 08:04:56;;;;;;;28.05;16.10;;;;;;;9.03;100.00;99428.00;4957697;29;20117;-72
2023/04/01 08:08:06;;;;;;;19.65;13.55;;;;;;;9.02;100.00;99420.97;4939444;29;20387;-73
2023/04/01 08:10:46;;;;;;;21.48;13.85;;;;;;;9.10;100.00;99432.41;4957300;29;20027;-74
2023/04/01 08:13:40;;;;;;;18.50;13.60;;;;;;;9.12;100.00;99435.66;4956709;28;20027;-78
2023/04/01 08:16:37;;;;;;;19.02;13.88;;;;;;;9.18;100.00;99435.50;4962644;28;20450;-73
2023/04/01 08:19:14;;;;;;;20.45;13.40;;;;;;;9.22;100.00;99443.91;4957533;28;20031;-73
2023/04/01 08:21:45;;;;;;;24.15;14.98;;;;;;;9.29;100.00;99446.44;4956676;28;20109;-71
2023/04/01 08:24:21;;;;;;;24.35;15.30;;;;;;;9.29;100.00;99454.53;4976128;28;20118;-71
2023/04/01 08:26:51;;;;;;;26.70;16.55;;;;;;;9.32;100.00;99451.31;4976273;28;20023;-72
2023/04/01 08:29:23;;;;;;;26.27;17.48;;;;;;;9.34;100.00;99455.38;4976029;28;20474;-70
2023/04/01 08:31:54;;;;;;;27.10;16.88;;;;;;;9.39;100.00;99468.13;4959014;28;20023;-70
2023/04/01 08:34:24;;;;;;;26.33;16.60;;;;;;;9.39;100.00;99460.84;4957493;28;20031;-73
2023/04/01 08:37:00;;;;;;;26.48;17.33;;;;;;;9.36;100.00;99458.66;4961365;28;20066;-73
2023/04/01 08:39:38;;;;;;;23.48;17.08;;;;;;;9.40;100.00;99464.38;4961341;28;20020;-73
2023/04/01 08:42:25;;;;;;;26.15;15.93;;;;;;;9.41;100.00;99463.31;4959850;28;20428;-70
2023/04/01 08:45:18;;;;;;;23.85;15.45;;;;;;;9.44;100.00;99479.00;4958524;28;20482;-71
2023/04/01 08:47:46;;;;;;;21.30;14.30;;;;;;;9.46;100.00;99482.25;4939566;28;20071;-71
2023/04/01 08:50:30;;;;;;;21.17;14.93;;;;;;;9.49;100.00;99492.56;4955491;29;20086;-74
2023/04/01 08:53:21;;;;;;;23.48;14.57;;;;;;;9.50;100.00;99488.00;4956042;28;20102;-70
2023/04/01 08:56:07;;;;;;;19.70;13.90;;;;;;;9.47;100.00;99491.19;4956463;29;20030;-73
2023/04/01 08:59:09;;;;;;;20.77;14.00;;;;;;;9.53;100.00;99492.88;4964989;28;20070;-69
2023/04/01 09:02:13;;;;;;;17.75;13.85;;;;;;;9.62;100.00;99494.06;4936692;29;20027;-71
2023/04/01 09:04:57;;;;;;;18.88;13.30;;;;;;;9.60;100.00;99504.28;4896749;29;20037;-73
2023/04/01 09:07:50;;;;;;;21.13;12.63;;;;;;;9.60;100.00;99512.41;4896628;29;20469;-71
2023/04/01 09:10:37;;;;;;;17.65;11.73;;;;;;;9.65;100.00;99509.78;4941058;28;20098;-70
2023/04/01 09:13:14;;;;;;;16.52;12.50;;;;;;;9.59;100.00;99518.88;4956467;29;20058;-71
2023/04/01 09:16:16;;;;;;;13.15;10.60;;;;;;;9.66;100.00;99521.38;4955854;29;20105;-74
2023/04/01 09:18:59;;;;;;;14.23;9.35;;;;;;;9.60;100.00;99523.19;4942382;29;20019;-70
2023/04/01 09:21:39;;;;;;;16.30;10.60;;;;;;;9.58;100.00;99528.84;4961003;28;20387;-71
2023/04/01 09:24:33;;;;;;;13.05;10.18;;;;;;;9.61;100.00;99535.66;4968697;28;20109;-70
2023/04/01 09:27:19;;;;;;;15.38;9.90;;;;;;;9.58;100.00;99534.25;4941908;28;20042;-72
2023/04/01 09:29:50;;;;;;;13.18;10.00;;;;;;;9.58;100.00;99530.75;4974363;28;20512;-73
2023/04/01 09:32:53;;;;;;;14.07;10.18;;;;;;;9.61;100.00;99541.06;4975728;28;20512;-73
2023/04/01 09:35:37;;;;;;;14.50;10.07;;;;;;;9.55;100.00;99533.94;4987268;28;20045;-74
2023/04/01 09:38:08;;;;;;;14.02;9.98;;;;;;;9.51;100.00;99540.91;4978954;28;20041;-72
2023/04/01 09:40:58;;;;;;;11.15;8.80;;;;;;;9.51;100.00;99549.00;4971971;28;20023;-71
2023/04/01 09:43:48;;;;;;;12.82;8.75;;;;;;;9.51;100.00;99547.16;4959465;28;20063;-71
2023/04/01 09:46:35;;;;;;;9.90;8.50;;;;;;;9.48;100.00;99554.91;4938182;29;20031;-73
2023/04/01 09:49:04;;;;;;;10.95;8.45;;;;;;;9.49;100.00;99551.16;4938523;29;20035;-72
2023/04/01 09:51:57;;;;;;;14.40;8.20;;;;;;;9.46;100.00;99560.56;4955432;29;20073;-71
2023/04/01 09:54:58;;;;;;;9.00;8.10;;;;;;;9.48;100.00;99557.63;4961592;28;20050;-71
2023/04/01 09:58:11;;;;;;;12.63;8.70;;;;;;;9.50;100.00;99558.19;4955120;29;20071;-70
2023/04/01 10:00:59;;;;;;;10.38;8.30;;;;;;;9.51;100.00;99568.75;4960543;28;20030;-71
2023/04/01 10:03:45;;;;;;;12.07;8.50;;;;;;;9.50;100.00;99569.00;4974477;28;20026;-73
2023/04/01 10:06:32;;;;;;;10.95;9.02;;;;;;;9.48;100.00;99569.25;4953871;29;20028;-70
2023/04/01 10:09:09;;;;;;;11.93;9.65;;;;;;;9.47;100.00;99574.91;4940780;28;20046;-72
2023/04/01 10:12:12;;;;;;;13.30;9.82;;;;;;;9.51;100.00;99578.72;4948133;28;20035;-71
2023/04/01 10:15:15;;;;;;;11.82;9.43;;;;;;;9.63;100.00;99581.31;4957683;28;20027;-72
2023/04/01 10:18:38;;;;;;;13.38;9.63;;;;;;;9.50;100.00;99585.22;4945824;29;20086;-75
2023/04/01 10:21:32;;;;;;;13.25;9.95;;;;;;;9.53;100.00;99592.81;4914105;29;20129;-75
2023/04/01 10:24:21;;;;;;;13.85;10.02;;;;;;;9.46;100.00;99586.75;4887180;29;20032;-73
2023/04/01 10:26:57;;;;;;;12.15;9.63;;;;;;;9.47;100.00;99599.22;4951374;28;20050;-76
2023/04/01 10:29:31;;;;;;;12.95;10.70;;;;;;;9.49;100.00;99600.56;4954544;29;20031;-72
2023/04/01 10:32:23;;;;;;;14.48;11.13;;;;;;;9.43;100.00;99600.75;4954786;29;20530;-75
2023/04/01 10:35:06;;;;;;;14.45;11.38;;;;;;;9.53;100.00;99604.41;4955356;29;20027;-71
2023/04/01 10:37:47;;;;;;;13.25;10.90;;;;;;;9.49;100.00;99597.06;4954528;28;20044;-73
2023/04/01 10:40:27;;;;;;;17.35;11.98;;;;;;;9.38;100.00;99607.72;4955273;29;20512;-72
2023/04/01 10:43:15;;;;;;;16.60;12.65;;;;;;;9.40;100.00;99602.06;4952885;28;20031;-71
2023/04/01 10:46:02;;;;;;;15.18;12.27;;;;;;;9.43;100.00;99619.66;4954360;28;20133;-73
2023/04/01 10:48:53;;;;;;;15.55;11.82;;;;;;;9.40;100.00;99615.56;4963713;28;20045;-70
2023/04/01 10:51:45;;;;;;;16.55;12.32;;;;;;;9.44;100.00;99614.00;4936257;28;20391;-75
2023/04/01 10:54:30;;;;;;;17.88;12.50;;;;;;;9.37;100.00;99619.56;4972079;28;20030;-74
2023/04/01 10:57:00;;;;;;;17.77;13.65;;;;;;;9.36;100.00;99620.66;4969247;28;20023;-75
2023/04/01 10:59:57;;;;;;;17.33;13.30;;;;;;;9.40;100.00;99620.97;4957248;28;20122;-71
2023/04/01 11:02:53;;;;;;;18.70;13.18;;;;;;;9.39;100.00;99630.13;4952491;28;20020;-70
2023/04/01 11:05:50;;;;;;;20.20;13.32;;;;;;;9.41;100.00;99628.00;4962710;28;20106;-72
2023/04/01 11:08:21;;;;;;;18.25;12.43;;;;;;;9.37;100.00;99627.66;4954628;29;20027;-74
2023/04/01 11:11:23;;;;;;;19.20;13.02;;;;;;;9.37;100.00;99627.66;4954038;28;20371;-71
2023/04/01 11:14:09;;;;;;;;;;;;;;;9.43;100.00;99630.47;4956494;28;20139;-70
2023/04/01 11:16:55;;;;;;;17.20;11.85;;;;;;;9.44;100.00;99632.09;4973388;28;19964;-73
2023/04/01 11:19:45;;;;;;;19.13;14.18;;;;;;;9.42;100.00;99636.91;4971658;28;20051;-73
2023/04/01 11:22:28;;;;;;;17.30;13.65;;;;;;;9.50;100.00;99641.91;4954279;28;20029;-74
2023/04/01 11:25:18;;;;;;;21.50;13.57;;;;;;;9.52;100.00;99645.97;4948118;28;20518;-74
2023/04/01 11:28:02;;;;;;;20.08;13.70;;;;;;;9.53;100.00;99654.91;4975028;28;20062;-71
2023/04/01 11:31:05;;;;;;;17.55;13.45;;;;;;;9.53;100.00;99646.81;4958085;29;20039;-72
2023/04/01 11:33:45;;;;;;;13.90;11.68;;;;;;;9.53;100.00;99657.63;4957740;29;20031;-69
2023/04/01 11:36:44;;;;;;;14.75;11.98;;;;;;;9.51;100.00;99655.16;4957290;28;20047;-70
2023/04/01 11:39:53;;;;;;;16.55;12.43;;;;;;;9.57;100.00;99664.13;4956819;29;20114;-76
2023/04/01 11:42:21;;;;;;;17.25;13.23;;;;;;;9.54;100.00;99665.47;4960806;28;20110;-70
2023/04/01 11:45:01;;;;;;;16.33;13.07;;;;;;;9.55;100.00;99659.00;4975340;28;20081;-73
2023/04/01 11:48:17;;;;;;;16.85;13.52;;;;;;;9.59;100.00;99670.13;4960172;28;20030;-74
2023/04/01 11:51:27;;;;;;;16.60;13.48;;;;;;;9.66;100.00;99678.06;4943972;28;20047;-70
2023/04/01 11:54:17;;;;;;;16.27;12.50;;;;;;;9.64;100.00;99678.31;4917751;29;20066;-71
2023/04/01 11:57:07;;;;;;;13.05;11.15;;;;;;;9.62;100.00;99687.72;4916855;29;20118;-69
2023/04/01 11:59:48;;;;;;;14.43;10.90;;;;;;;9.53;100.00;99690.84;4948986;29;20047;-73
2023/04/01 12:02:37;;;;;;;13.88;10.68;;;;;;;9.50;100.00;99691.34;4955044;28;20039;-73
2023/04/01 12:05:28;;;;;;;16.27;11.68;;;;;;;9.51;100.00;99689.44;4958005;29;20090;-70
2023/04/01 12:08:01;;;;;;;11.65;9.25;;;;;;;9.53;100.00;99700.84;4940566;29;20074;-73